sensor_id;sensor_type;location;lat;lon;timestamp;temperature;humidity
5130;DHT22;2583;50.946;6.954;2022-07-21T00:00:55;20.20;99.90
5130;DHT22;2583;50.946;6.954;2022-07-21T00:03:22;20.10;99.90
5130;DHT22;2583;50.946;6.954;2022-07-21T00:05:49;20.10;99.90
5130;DHT22;2583;50.946;6.954;2022-07-21T00:08:16;20.10;99.90
5130;DHT22;2583;50.946;6.954;2022-07-21T00:10:42;20.00;99.90
5130;DHT22;2583;50.946;6.954;2022-07-21T00:13:09;20.00;99.90
5130;DHT22;2583;50.946;6.954;2022-07-21T00:15:36;20.10;99.90
5130;DHT22;2583;50.946;6.954;2022-07-21T00:18:04;20.10;99.90
5130;DHT22;2583;50.946;6.954;2022-07-21T00:20:31;20.20;99.90
5130;DHT22;2583;50.946;6.954;2022-07-21T00:22:58;20.20;99.90
5130;DHT22;2583;50.946;6.954;2022-07-21T00:25:25;20.20;99.90
5130;DHT22;2583;50.946;6.954;2022-07-21T00:27:59;20.20;99.90
5130;DHT22;2583;50.946;6.954;2022-07-21T00:30:26;20.20;99.90
5130;DHT22;2583;50.946;6.954;2022-07-21T00:32:53;20.20;99.90
5130;DHT22;2583;50.946;6.954;2022-07-21T00:35:20;20.30;99.90
5130;DHT22;2583;50.946;6.954;2022-07-21T00:37:47;20.30;99.90
5130;DHT22;2583;50.946;6.954;2022-07-21T00:40:14;20.30;99.90
5130;DHT22;2583;50.946;6.954;2022-07-21T00:42:43;20.30;99.90
5130;DHT22;2583;50.946;6.954;2022-07-21T00:45:11;20.30;99.90
5130;DHT22;2583;50.946;6.954;2022-07-21T00:47:38;20.40;99.90
5130;DHT22;2583;50.946;6.954;2022-07-21T00:50:09;20.40;99.90
5130;DHT22;2583;50.946;6.954;2022-07-21T00:52:37;20.40;99.90
5130;DHT22;2583;50.946;6.954;2022-07-21T00:55:05;20.30;99.90
5130;DHT22;2583;50.946;6.954;2022-07-21T00:57:33;20.20;99.90
5130;DHT22;2583;50.946;6.954;2022-07-21T01:00:02;20.20;99.90
5130;DHT22;2583;50.946;6.954;2022-07-21T01:02:29;20.20;99.90
5130;DHT22;2583;50.946;6.954;2022-07-21T01:04:58;20.10;99.90
5130;DHT22;2583;50.946;6.954;2022-07-21T01:07:25;20.00;99.90
5130;DHT22;2583;50.946;6.954;2022-07-21T01:09:53;20.00;99.90
5130;DHT22;2583;50.946;6.954;2022-07-21T01:12:21;20.00;99.90
5130;DHT22;2583;50.946;6.954;2022-07-21T01:14:48;20.00;99.90
5130;DHT22;2583;50.946;6.954;2022-07-21T01:17:15;20.00;99.90
5130;DHT22;2583;50.946;6.954;2022-07-21T01:19:42;20.00;99.90
5130;DHT22;2583;50.946;6.954;2022-07-21T01:22:09;20.10;99.90
5130;DHT22;2583;50.946;6.954;2022-07-21T01:24:36;20.20;99.90
5130;DHT22;2583;50.946;6.954;2022-07-21T01:27:03;20.10;99.90
5130;DHT22;2583;50.946;6.954;2022-07-21T01:29:30;20.20;99.90
5130;DHT22;2583;50.946;6.954;2022-07-21T01:31:56;20.20;99.90
5130;DHT22;2583;50.946;6.954;2022-07-21T01:34:23;20.20;99.90
5130;DHT22;2583;50.946;6.954;2022-07-21T01:36:50;20.10;99.90
5130;DHT22;2583;50.946;6.954;2022-07-21T01:39:17;20.10;99.90
5130;DHT22;2583;50.946;6.954;2022-07-21T01:42:03;20.10;99.90
5130;DHT22;2583;50.946;6.954;2022-07-21T01:44:31;20.10;99.90
5130;DHT22;2583;50.946;6.954;2022-07-21T01:46:58;20.10;99.90
5130;DHT22;2583;50.946;6.954;2022-07-21T01:49:25;20.10;99.90
5130;DHT22;2583;50.946;6.954;2022-07-21T01:51:52;20.20;99.90
5130;DHT22;2583;50.946;6.954;2022-07-21T01:54:19;20.20;99.90
5130;DHT22;2583;50.946;6.954;2022-07-21T01:56:50;20.20;99.90
5130;DHT22;2583;50.946;6.954;2022-07-21T01:59:17;20.20;99.90
5130;DHT22;2583;50.946;6.954;2022-07-21T02:01:44;20.20;99.90
5130;DHT22;2583;50.946;6.954;2022-07-21T02:04:11;20.20;99.90
5130;DHT22;2583;50.946;6.954;2022-07-21T02:06:38;20.30;99.90
5130;DHT22;2583;50.946;6.954;2022-07-21T02:09:05;20.30;99.90
5130;DHT22;2583;50.946;6.954;2022-07-21T02:11:34;20.30;99.90
5130;DHT22;2583;50.946;6.954;2022-07-21T02:14:01;20.30;99.90
5130;DHT22;2583;50.946;6.954;2022-07-21T02:16:28;20.30;99.90
5130;DHT22;2583;50.946;6.954;2022-07-21T02:18:55;20.30;99.90
5130;DHT22;2583;50.946;6.954;2022-07-21T02:21:23;20.40;99.90
5130;DHT22;2583;50.946;6.954;2022-07-21T02:23:50;20.30;99.90
5130;DHT22;2583;50.946;6.954;2022-07-21T02:26:17;20.30;99.90
5130;DHT22;2583;50.946;6.954;2022-07-21T02:28:44;20.30;99.90
5130;DHT22;2583;50.946;6.954;2022-07-21T02:31:11;20.30;99.90
5130;DHT22;2583;50.946;6.954;2022-07-21T02:33:38;20.30;99.90
5130;DHT22;2583;50.946;6.954;2022-07-21T02:36:05;20.30;99.90
5130;DHT22;2583;50.946;6.954;2022-07-21T02:38:32;20.20;99.90
5130;DHT22;2583;50.946;6.954;2022-07-21T02:40:59;20.20;99.90
5130;DHT22;2583;50.946;6.954;2022-07-21T02:43:26;20.30;99.90
5130;DHT22;2583;50.946;6.954;2022-07-21T02:45:53;20.30;99.90
5130;DHT22;2583;50.946;6.954;2022-07-21T02:48:20;20.30;99.90
5130;DHT22;2583;50.946;6.954;2022-07-21T02:50:47;20.30;99.90
5130;DHT22;2583;50.946;6.954;2022-07-21T02:53:16;20.30;99.90
5130;DHT22;2583;50.946;6.954;2022-07-21T02:55:47;20.30;99.90
5130;DHT22;2583;50.946;6.954;2022-07-21T03:01:01;20.30;99.90
5130;DHT22;2583;50.946;6.954;2022-07-21T03:03:31;20.40;99.90
5130;DHT22;2583;50.946;6.954;2022-07-21T03:05:58;20.30;99.90
5130;DHT22;2583;50.946;6.954;2022-07-21T03:08:27;20.30;99.90
5130;DHT22;2583;50.946;6.954;2022-07-21T03:10:53;20.30;99.90
5130;DHT22;2583;50.946;6.954;2022-07-21T03:13:21;20.20;99.90
5130;DHT22;2583;50.946;6.954;2022-07-21T03:15:48;20.20;99.90
5130;DHT22;2583;50.946;6.954;2022-07-21T03:18:15;20.20;99.90
5130;DHT22;2583;50.946;6.954;2022-07-21T03:20:42;20.20;99.90
5130;DHT22;2583;50.946;6.954;2022-07-21T03:23:10;20.20;99.90
5130;DHT22;2583;50.946;6.954;2022-07-21T03:25:37;20.20;99.90
5130;DHT22;2583;50.946;6.954;2022-07-21T03:28:04;20.30;99.90
5130;DHT22;2583;50.946;6.954;2022-07-21T03:30:31;20.30;99.90
5130;DHT22;2583;50.946;6.954;2022-07-21T03:32:58;20.20;99.90
5130;DHT22;2583;50.946;6.954;2022-07-21T03:35:25;20.30;99.90
5130;DHT22;2583;50.946;6.954;2022-07-21T03:37:55;20.30;99.90
5130;DHT22;2583;50.946;6.954;2022-07-21T03:40:23;20.30;99.90
5130;DHT22;2583;50.946;6.954;2022-07-21T03:42:52;20.20;99.90
5130;DHT22;2583;50.946;6.954;2022-07-21T03:45:19;20.20;99.90
5130;DHT22;2583;50.946;6.954;2022-07-21T03:47:46;20.20;99.90
5130;DHT22;2583;50.946;6.954;2022-07-21T03:50:13;20.20;99.90
5130;DHT22;2583;50.946;6.954;2022-07-21T03:52:42;20.20;99.90
5130;DHT22;2583;50.946;6.954;2022-07-21T03:55:09;20.20;99.90
5130;DHT22;2583;50.946;6.954;2022-07-21T03:57:48;20.20;99.90
5130;DHT22;2583;50.946;6.954;2022-07-21T04:00:25;20.10;99.90
5130;DHT22;2583;50.946;6.954;2022-07-21T04:02:53;20.10;99.90
5130;DHT22;2583;50.946;6.954;2022-07-21T04:05:20;20.10;99.90
5130;DHT22;2583;50.946;6.954;2022-07-21T04:07:49;20.10;99.90
5130;DHT22;2583;50.946;6.954;2022-07-21T04:10:19;20.20;99.90
5130;DHT22;2583;50.946;6.954;2022-07-21T04:12:48;20.20;99.90
5130;DHT22;2583;50.946;6.954;2022-07-21T04:15:16;20.10;99.90
5130;DHT22;2583;50.946;6.954;2022-07-21T04:17:43;20.10;99.90
5130;DHT22;2583;50.946;6.954;2022-07-21T04:20:11;20.20;99.90
5130;DHT22;2583;50.946;6.954;2022-07-21T04:22:39;20.20;99.90
5130;DHT22;2583;50.946;6.954;2022-07-21T04:25:07;20.30;99.90
5130;DHT22;2583;50.946;6.954;2022-07-21T04:27:35;20.30;99.90
5130;DHT22;2583;50.946;6.954;2022-07-21T04:30:04;20.40;99.90
5130;DHT22;2583;50.946;6.954;2022-07-21T04:32:31;20.30;99.90
5130;DHT22;2583;50.946;6.954;2022-07-21T04:34:58;20.30;99.90
5130;DHT22;2583;50.946;6.954;2022-07-21T04:37:26;20.30;99.90
5130;DHT22;2583;50.946;6.954;2022-07-21T04:39:53;20.40;99.90
5130;DHT22;2583;50.946;6.954;2022-07-21T04:42:20;20.40;99.90
5130;DHT22;2583;50.946;6.954;2022-07-21T04:44:47;20.40;99.90
5130;DHT22;2583;50.946;6.954;2022-07-21T04:47:14;20.40;99.90
5130;DHT22;2583;50.946;6.954;2022-07-21T04:49:41;20.40;99.90
5130;DHT22;2583;50.946;6.954;2022-07-21T04:52:08;20.40;99.90
5130;DHT22;2583;50.946;6.954;2022-07-21T04:54:36;20.40;99.90
5130;DHT22;2583;50.946;6.954;2022-07-21T04:57:03;20.40;99.90
5130;DHT22;2583;50.946;6.954;2022-07-21T04:59:33;20.40;99.90
5130;DHT22;2583;50.946;6.954;2022-07-21T05:02:00;20.40;99.90
5130;DHT22;2583;50.946;6.954;2022-07-21T05:04:27;20.50;99.90
5130;DHT22;2583;50.946;6.954;2022-07-21T05:06:54;20.50;99.90
5130;DHT22;2583;50.946;6.954;2022-07-21T05:09:21;20.60;99.90
5130;DHT22;2583;50.946;6.954;2022-07-21T05:11:48;20.70;99.90
5130;DHT22;2583;50.946;6.954;2022-07-21T05:14:15;20.70;99.90
5130;DHT22;2583;50.946;6.954;2022-07-21T05:16:42;20.70;99.90
5130;DHT22;2583;50.946;6.954;2022-07-21T05:19:10;20.80;99.90
5130;DHT22;2583;50.946;6.954;2022-07-21T05:21:37;20.80;99.90
5130;DHT22;2583;50.946;6.954;2022-07-21T05:24:04;20.80;99.90
5130;DHT22;2583;50.946;6.954;2022-07-21T05:26:31;20.80;99.90
5130;DHT22;2583;50.946;6.954;2022-07-21T05:28:57;20.80;99.90
5130;DHT22;2583;50.946;6.954;2022-07-21T05:31:24;20.70;99.90
5130;DHT22;2583;50.946;6.954;2022-07-21T05:33:51;20.70;99.90
5130;DHT22;2583;50.946;6.954;2022-07-21T05:36:18;20.70;99.90
5130;DHT22;2583;50.946;6.954;2022-07-21T05:38:46;20.70;99.90
5130;DHT22;2583;50.946;6.954;2022-07-21T05:41:13;20.70;99.90
5130;DHT22;2583;50.946;6.954;2022-07-21T05:43:40;20.70;99.90
5130;DHT22;2583;50.946;6.954;2022-07-21T05:46:07;20.70;99.90
5130;DHT22;2583;50.946;6.954;2022-07-21T05:48:34;20.70;99.90
5130;DHT22;2583;50.946;6.954;2022-07-21T05:51:01;20.70;99.90
5130;DHT22;2583;50.946;6.954;2022-07-21T05:53:28;20.70;99.90
5130;DHT22;2583;50.946;6.954;2022-07-21T05:55:55;20.70;99.90
5130;DHT22;2583;50.946;6.954;2022-07-21T05:58:22;20.70;99.90
5130;DHT22;2583;50.946;6.954;2022-07-21T06:00:52;20.70;99.90
5130;DHT22;2583;50.946;6.954;2022-07-21T06:03:36;20.70;99.90
5130;DHT22;2583;50.946;6.954;2022-07-21T06:06:04;20.70;99.90
5130;DHT22;2583;50.946;6.954;2022-07-21T06:08:31;20.70;99.90
5130;DHT22;2583;50.946;6.954;2022-07-21T06:10:58;20.70;99.90
5130;DHT22;2583;50.946;6.954;2022-07-21T06:13:25;20.70;99.90
5130;DHT22;2583;50.946;6.954;2022-07-21T06:15:52;20.70;99.90
5130;DHT22;2583;50.946;6.954;2022-07-21T06:18:19;20.60;99.90
5130;DHT22;2583;50.946;6.954;2022-07-21T06:20:48;20.60;99.90
5130;DHT22;2583;50.946;6.954;2022-07-21T06:23:15;20.50;99.90
5130;DHT22;2583;50.946;6.954;2022-07-21T06:25:42;20.50;99.90
5130;DHT22;2583;50.946;6.954;2022-07-21T06:28:09;20.50;99.90
5130;DHT22;2583;50.946;6.954;2022-07-21T06:30:36;20.50;99.90
5130;DHT22;2583;50.946;6.954;2022-07-21T06:33:03;20.50;99.90
5130;DHT22;2583;50.946;6.954;2022-07-21T06:35:30;20.60;99.90
5130;DHT22;2583;50.946;6.954;2022-07-21T06:37:57;20.60;99.90
5130;DHT22;2583;50.946;6.954;2022-07-21T06:40:24;20.60;99.90
5130;DHT22;2583;50.946;6.954;2022-07-21T06:42:51;20.60;99.90
5130;DHT22;2583;50.946;6.954;2022-07-21T06:45:38;20.60;99.90
5130;DHT22;2583;50.946;6.954;2022-07-21T06:48:06;20.70;99.90
5130;DHT22;2583;50.946;6.954;2022-07-21T06:50:33;20.70;99.90
5130;DHT22;2583;50.946;6.954;2022-07-21T06:53:01;20.80;99.90
5130;DHT22;2583;50.946;6.954;2022-07-21T06:55:28;20.80;99.90
5130;DHT22;2583;50.946;6.954;2022-07-21T06:57:54;21.00;99.90
5130;DHT22;2583;50.946;6.954;2022-07-21T07:00:21;20.90;99.90
5130;DHT22;2583;50.946;6.954;2022-07-21T07:02:49;21.10;99.90
5130;DHT22;2583;50.946;6.954;2022-07-21T07:05:16;21.10;99.90
5130;DHT22;2583;50.946;6.954;2022-07-21T07:07:43;21.10;99.90
5130;DHT22;2583;50.946;6.954;2022-07-21T07:10:10;21.20;99.90
5130;DHT22;2583;50.946;6.954;2022-07-21T07:12:38;21.30;99.90
5130;DHT22;2583;50.946;6.954;2022-07-21T07:15:25;21.30;99.90
5130;DHT22;2583;50.946;6.954;2022-07-21T07:17:52;21.40;99.90
5130;DHT22;2583;50.946;6.954;2022-07-21T07:20:19;21.50;99.90
5130;DHT22;2583;50.946;6.954;2022-07-21T07:22:47;21.50;99.90
5130;DHT22;2583;50.946;6.954;2022-07-21T07:25:14;21.60;99.90
5130;DHT22;2583;50.946;6.954;2022-07-21T07:27:45;21.70;99.90
5130;DHT22;2583;50.946;6.954;2022-07-21T07:30:13;21.80;99.90
5130;DHT22;2583;50.946;6.954;2022-07-21T07:32:40;21.90;99.90
5130;DHT22;2583;50.946;6.954;2022-07-21T07:35:11;21.90;99.90
5130;DHT22;2583;50.946;6.954;2022-07-21T07:37:39;22.10;99.90
5130;DHT22;2583;50.946;6.954;2022-07-21T07:40:09;22.20;99.90
5130;DHT22;2583;50.946;6.954;2022-07-21T07:42:37;22.20;99.90
5130;DHT22;2583;50.946;6.954;2022-07-21T07:45:06;22.30;99.90
5130;DHT22;2583;50.946;6.954;2022-07-21T07:47:34;22.40;99.90
5130;DHT22;2583;50.946;6.954;2022-07-21T07:50:01;22.40;99.90
5130;DHT22;2583;50.946;6.954;2022-07-21T07:52:28;22.50;99.90
5130;DHT22;2583;50.946;6.954;2022-07-21T07:54:55;22.70;99.90
5130;DHT22;2583;50.946;6.954;2022-07-21T07:57:22;22.80;99.90
5130;DHT22;2583;50.946;6.954;2022-07-21T07:59:50;22.80;99.90
5130;DHT22;2583;50.946;6.954;2022-07-21T08:02:17;23.00;99.90
5130;DHT22;2583;50.946;6.954;2022-07-21T08:04:44;23.20;99.90
5130;DHT22;2583;50.946;6.954;2022-07-21T08:07:11;23.30;99.90
5130;DHT22;2583;50.946;6.954;2022-07-21T08:09:39;23.50;99.90
5130;DHT22;2583;50.946;6.954;2022-07-21T08:12:06;23.50;99.90
5130;DHT22;2583;50.946;6.954;2022-07-21T08:14:33;23.50;99.90
5130;DHT22;2583;50.946;6.954;2022-07-21T08:17:00;23.30;99.90
5130;DHT22;2583;50.946;6.954;2022-07-21T08:19:27;23.30;99.90
5130;DHT22;2583;50.946;6.954;2022-07-21T08:21:54;23.40;99.90
5130;DHT22;2583;50.946;6.954;2022-07-21T08:24:39;23.40;99.90
5130;DHT22;2583;50.946;6.954;2022-07-21T08:27:06;23.40;99.90
5130;DHT22;2583;50.946;6.954;2022-07-21T08:29:33;23.40;99.90
5130;DHT22;2583;50.946;6.954;2022-07-21T08:32:00;23.30;99.90
5130;DHT22;2583;50.946;6.954;2022-07-21T08:34:27;23.40;99.90
5130;DHT22;2583;50.946;6.954;2022-07-21T08:36:54;23.40;99.90
5130;DHT22;2583;50.946;6.954;2022-07-21T08:39:21;23.40;99.90
5130;DHT22;2583;50.946;6.954;2022-07-21T08:41:48;23.50;99.90
5130;DHT22;2583;50.946;6.954;2022-07-21T08:44:17;23.50;99.90
5130;DHT22;2583;50.946;6.954;2022-07-21T08:46:49;23.70;99.90
5130;DHT22;2583;50.946;6.954;2022-07-21T08:49:20;23.80;99.90
5130;DHT22;2583;50.946;6.954;2022-07-21T08:51:49;23.80;99.90
5130;DHT22;2583;50.946;6.954;2022-07-21T08:54:20;23.70;99.90
5130;DHT22;2583;50.946;6.954;2022-07-21T08:56:48;23.70;99.90
5130;DHT22;2583;50.946;6.954;2022-07-21T08:59:14;23.70;99.90
5130;DHT22;2583;50.946;6.954;2022-07-21T09:01:42;23.70;99.90
5130;DHT22;2583;50.946;6.954;2022-07-21T09:06:57;23.60;99.90
5130;DHT22;2583;50.946;6.954;2022-07-21T09:09:26;23.60;99.90
5130;DHT22;2583;50.946;6.954;2022-07-21T09:11:53;24.00;99.90
5130;DHT22;2583;50.946;6.954;2022-07-21T09:14:26;24.40;99.70
5130;DHT22;2583;50.946;6.954;2022-07-21T09:16:58;24.90;97.90
5130;DHT22;2583;50.946;6.954;2022-07-21T09:19:35;25.00;95.60
5130;DHT22;2583;50.946;6.954;2022-07-21T09:22:13;25.00;95.00
5130;DHT22;2583;50.946;6.954;2022-07-21T09:24:40;25.00;95.80
5130;DHT22;2583;50.946;6.954;2022-07-21T09:29:37;25.00;93.60
5130;DHT22;2583;50.946;6.954;2022-07-21T09:32:37;25.10;88.80
5130;DHT22;2583;50.946;6.954;2022-07-21T09:35:11;25.00;82.00
5130;DHT22;2583;50.946;6.954;2022-07-21T09:37:41;25.00;80.60
5130;DHT22;2583;50.946;6.954;2022-07-21T09:40:11;24.90;80.40
5130;DHT22;2583;50.946;6.954;2022-07-21T09:42:41;25.00;77.90
5130;DHT22;2583;50.946;6.954;2022-07-21T09:45:12;25.00;79.10
5130;DHT22;2583;50.946;6.954;2022-07-21T09:47:40;25.00;78.30
5130;DHT22;2583;50.946;6.954;2022-07-21T09:50:09;25.00;77.50
5130;DHT22;2583;50.946;6.954;2022-07-21T09:52:56;25.10;75.60
5130;DHT22;2583;50.946;6.954;2022-07-21T09:55:24;25.10;76.10
5130;DHT22;2583;50.946;6.954;2022-07-21T09:57:51;25.20;73.20
5130;DHT22;2583;50.946;6.954;2022-07-21T10:00:19;25.30;74.70
5130;DHT22;2583;50.946;6.954;2022-07-21T10:02:48;25.40;68.80
5130;DHT22;2583;50.946;6.954;2022-07-21T10:05:20;25.40;64.90
5130;DHT22;2583;50.946;6.954;2022-07-21T10:07:57;25.40;67.40
5130;DHT22;2583;50.946;6.954;2022-07-21T10:10:27;25.40;66.00
5130;DHT22;2583;50.946;6.954;2022-07-21T10:13:14;25.40;68.20
5130;DHT22;2583;50.946;6.954;2022-07-21T10:15:44;25.40;72.30
5130;DHT22;2583;50.946;6.954;2022-07-21T10:18:13;25.30;73.40
5130;DHT22;2583;50.946;6.954;2022-07-21T10:20:43;25.10;75.30
5130;DHT22;2583;50.946;6.954;2022-07-21T10:23:26;24.80;79.40
5130;DHT22;2583;50.946;6.954;2022-07-21T10:25:54;24.80;83.20
5130;DHT22;2583;50.946;6.954;2022-07-21T10:28:22;25.00;76.90
5130;DHT22;2583;50.946;6.954;2022-07-21T10:30:55;24.90;76.20
5130;DHT22;2583;50.946;6.954;2022-07-21T10:41:43;24.30;77.60
5130;DHT22;2583;50.946;6.954;2022-07-21T10:47:04;24.20;82.60
5130;DHT22;2583;50.946;6.954;2022-07-21T10:49:51;24.20;82.30
5130;DHT22;2583;50.946;6.954;2022-07-21T10:55:20;24.40;88.60
5130;DHT22;2583;50.946;6.954;2022-07-21T10:58:13;24.30;92.10
5130;DHT22;2583;50.946;6.954;2022-07-21T11:03:37;24.10;98.40
5130;DHT22;2583;50.946;6.954;2022-07-21T11:06:22;24.00;99.90
5130;DHT22;2583;50.946;6.954;2022-07-21T11:11:31;24.00;99.90
5130;DHT22;2583;50.946;6.954;2022-07-21T11:14:10;24.00;99.90
5130;DHT22;2583;50.946;6.954;2022-07-21T11:19:47;23.90;99.90
5130;DHT22;2583;50.946;6.954;2022-07-21T11:22:19;23.80;99.90
5130;DHT22;2583;50.946;6.954;2022-07-21T11:27:17;23.50;99.90
5130;DHT22;2583;50.946;6.954;2022-07-21T11:29:51;23.30;99.90
5130;DHT22;2583;50.946;6.954;2022-07-21T11:32:18;23.20;99.90
5130;DHT22;2583;50.946;6.954;2022-07-21T11:35:05;23.10;99.90
5130;DHT22;2583;50.946;6.954;2022-07-21T11:37:44;23.00;99.90
5130;DHT22;2583;50.946;6.954;2022-07-21T11:40:15;22.80;99.90
5130;DHT22;2583;50.946;6.954;2022-07-21T11:42:45;22.70;99.90
5130;DHT22;2583;50.946;6.954;2022-07-21T11:45:13;22.50;99.90
5130;DHT22;2583;50.946;6.954;2022-07-21T11:47:40;22.40;99.90
5130;DHT22;2583;50.946;6.954;2022-07-21T11:50:16;22.30;99.90
5130;DHT22;2583;50.946;6.954;2022-07-21T11:52:43;22.20;99.90
5130;DHT22;2583;50.946;6.954;2022-07-21T11:55:11;21.80;99.90
5130;DHT22;2583;50.946;6.954;2022-07-21T11:57:43;21.70;99.90
5130;DHT22;2583;50.946;6.954;2022-07-21T12:00:10;21.50;99.90
5130;DHT22;2583;50.946;6.954;2022-07-21T12:02:38;21.30;99.90
5130;DHT22;2583;50.946;6.954;2022-07-21T12:05:06;21.10;99.90
5130;DHT22;2583;50.946;6.954;2022-07-21T12:07:39;21.00;99.90
5130;DHT22;2583;50.946;6.954;2022-07-21T12:10:13;20.80;99.90
5130;DHT22;2583;50.946;6.954;2022-07-21T12:12:46;20.60;99.90
5130;DHT22;2583;50.946;6.954;2022-07-21T12:17:52;20.40;99.90
5130;DHT22;2583;50.946;6.954;2022-07-21T12:20:32;20.30;99.90
5130;DHT22;2583;50.946;6.954;2022-07-21T12:23:18;20.40;99.90
5130;DHT22;2583;50.946;6.954;2022-07-21T12:25:45;20.40;99.90
5130;DHT22;2583;50.946;6.954;2022-07-21T12:28:18;20.30;99.90
5130;DHT22;2583;50.946;6.954;2022-07-21T12:30:50;20.40;99.90
5130;DHT22;2583;50.946;6.954;2022-07-21T12:33:19;20.40;99.90
5130;DHT22;2583;50.946;6.954;2022-07-21T12:36:08;20.40;99.90
5130;DHT22;2583;50.946;6.954;2022-07-21T12:38:41;20.40;99.90
5130;DHT22;2583;50.946;6.954;2022-07-21T12:41:10;20.40;99.90
5130;DHT22;2583;50.946;6.954;2022-07-21T12:43:55;20.40;99.90
5130;DHT22;2583;50.946;6.954;2022-07-21T12:46:34;20.50;99.90
5130;DHT22;2583;50.946;6.954;2022-07-21T12:49:05;20.40;99.90
5130;DHT22;2583;50.946;6.954;2022-07-21T12:51:39;20.40;99.90
5130;DHT22;2583;50.946;6.954;2022-07-21T12:54:06;20.50;99.90
5130;DHT22;2583;50.946;6.954;2022-07-21T12:56:35;20.50;99.90
5130;DHT22;2583;50.946;6.954;2022-07-21T12:59:03;20.40;99.90
5130;DHT22;2583;50.946;6.954;2022-07-21T13:01:31;20.50;99.90
5130;DHT22;2583;50.946;6.954;2022-07-21T13:04:01;20.50;99.90
5130;DHT22;2583;50.946;6.954;2022-07-21T13:06:27;20.60;99.90
5130;DHT22;2583;50.946;6.954;2022-07-21T13:08:54;20.60;99.90
5130;DHT22;2583;50.946;6.954;2022-07-21T13:11:22;20.60;99.90
5130;DHT22;2583;50.946;6.954;2022-07-21T13:13:50;20.60;99.90
5130;DHT22;2583;50.946;6.954;2022-07-21T13:16:18;20.60;99.90
5130;DHT22;2583;50.946;6.954;2022-07-21T13:18:49;20.60;99.90
5130;DHT22;2583;50.946;6.954;2022-07-21T13:21:17;20.60;99.90
5130;DHT22;2583;50.946;6.954;2022-07-21T13:23:44;20.60;99.90
5130;DHT22;2583;50.946;6.954;2022-07-21T13:26:12;20.60;99.90
5130;DHT22;2583;50.946;6.954;2022-07-21T13:28:39;20.60;99.90
5130;DHT22;2583;50.946;6.954;2022-07-21T13:31:06;20.70;99.90
5130;DHT22;2583;50.946;6.954;2022-07-21T13:33:34;20.70;99.90
5130;DHT22;2583;50.946;6.954;2022-07-21T13:36:04;20.80;99.90
5130;DHT22;2583;50.946;6.954;2022-07-21T13:38:31;20.90;99.90
5130;DHT22;2583;50.946;6.954;2022-07-21T13:40:58;21.00;99.90
5130;DHT22;2583;50.946;6.954;2022-07-21T13:43:45;21.00;99.90
5130;DHT22;2583;50.946;6.954;2022-07-21T13:46:13;20.90;99.90
5130;DHT22;2583;50.946;6.954;2022-07-21T13:48:40;20.90;99.90
5130;DHT22;2583;50.946;6.954;2022-07-21T13:51:15;20.90;99.90
5130;DHT22;2583;50.946;6.954;2022-07-21T13:53:43;20.90;99.90
5130;DHT22;2583;50.946;6.954;2022-07-21T13:56:11;20.80;99.90
5130;DHT22;2583;50.946;6.954;2022-07-21T13:58:39;20.70;99.90
5130;DHT22;2583;50.946;6.954;2022-07-21T14:01:06;20.70;99.90
5130;DHT22;2583;50.946;6.954;2022-07-21T14:03:35;20.60;99.90
5130;DHT22;2583;50.946;6.954;2022-07-21T14:06:02;20.60;99.90
5130;DHT22;2583;50.946;6.954;2022-07-21T14:08:29;20.60;99.90
5130;DHT22;2583;50.946;6.954;2022-07-21T14:10:56;20.60;99.90
5130;DHT22;2583;50.946;6.954;2022-07-21T14:13:23;20.60;99.90
5130;DHT22;2583;50.946;6.954;2022-07-21T14:15:50;20.60;99.90
5130;DHT22;2583;50.946;6.954;2022-07-21T14:18:17;20.50;99.90
5130;DHT22;2583;50.946;6.954;2022-07-21T14:20:44;20.50;99.90
5130;DHT22;2583;50.946;6.954;2022-07-21T14:23:11;20.50;99.90
5130;DHT22;2583;50.946;6.954;2022-07-21T14:25:38;20.60;99.90
5130;DHT22;2583;50.946;6.954;2022-07-21T14:28:06;20.60;99.90
5130;DHT22;2583;50.946;6.954;2022-07-21T14:30:33;20.60;99.90
5130;DHT22;2583;50.946;6.954;2022-07-21T14:33:00;20.70;99.90
5130;DHT22;2583;50.946;6.954;2022-07-21T14:35:27;20.70;99.90
5130;DHT22;2583;50.946;6.954;2022-07-21T14:37:55;20.80;99.90
5130;DHT22;2583;50.946;6.954;2022-07-21T14:40:22;20.90;99.90
5130;DHT22;2583;50.946;6.954;2022-07-21T14:42:49;20.80;99.90
5130;DHT22;2583;50.946;6.954;2022-07-21T14:45:20;20.80;99.90
5130;DHT22;2583;50.946;6.954;2022-07-21T14:47:53;20.80;99.90
5130;DHT22;2583;50.946;6.954;2022-07-21T14:50:21;20.80;99.90
5130;DHT22;2583;50.946;6.954;2022-07-21T14:52:54;20.70;99.90
5130;DHT22;2583;50.946;6.954;2022-07-21T14:55:22;20.60;99.90
5130;DHT22;2583;50.946;6.954;2022-07-21T14:57:52;20.40;99.90
5130;DHT22;2583;50.946;6.954;2022-07-21T15:00:19;20.30;99.90
5130;DHT22;2583;50.946;6.954;2022-07-21T15:02:46;20.30;99.90
5130;DHT22;2583;50.946;6.954;2022-07-21T15:05:14;20.40;99.90
5130;DHT22;2583;50.946;6.954;2022-07-21T15:07:41;20.40;99.90
5130;DHT22;2583;50.946;6.954;2022-07-21T15:10:08;20.40;99.90
5130;DHT22;2583;50.946;6.954;2022-07-21T15:12:35;20.40;99.90
5130;DHT22;2583;50.946;6.954;2022-07-21T15:15:03;20.60;99.90
5130;DHT22;2583;50.946;6.954;2022-07-21T15:17:30;20.70;99.90
5130;DHT22;2583;50.946;6.954;2022-07-21T15:19:57;20.90;99.90
5130;DHT22;2583;50.946;6.954;2022-07-21T15:22:27;21.00;99.90
5130;DHT22;2583;50.946;6.954;2022-07-21T15:24:57;21.20;99.90
5130;DHT22;2583;50.946;6.954;2022-07-21T15:27:25;21.40;99.90
5130;DHT22;2583;50.946;6.954;2022-07-21T15:29:52;21.40;99.90
5130;DHT22;2583;50.946;6.954;2022-07-21T15:32:19;21.50;99.90
5130;DHT22;2583;50.946;6.954;2022-07-21T15:34:46;21.50;99.90
5130;DHT22;2583;50.946;6.954;2022-07-21T15:37:13;21.30;99.90
5130;DHT22;2583;50.946;6.954;2022-07-21T15:39:40;21.20;99.90
5130;DHT22;2583;50.946;6.954;2022-07-21T15:42:08;21.10;99.90
5130;DHT22;2583;50.946;6.954;2022-07-21T15:44:36;21.10;99.90
5130;DHT22;2583;50.946;6.954;2022-07-21T15:47:05;21.10;99.90
5130;DHT22;2583;50.946;6.954;2022-07-21T15:49:33;21.10;99.90
5130;DHT22;2583;50.946;6.954;2022-07-21T15:52:00;21.10;99.90
5130;DHT22;2583;50.946;6.954;2022-07-21T15:54:29;21.10;99.90
5130;DHT22;2583;50.946;6.954;2022-07-21T15:57:16;21.10;99.90
5130;DHT22;2583;50.946;6.954;2022-07-21T15:59:43;21.10;99.90
5130;DHT22;2583;50.946;6.954;2022-07-21T16:02:13;21.00;99.90
5130;DHT22;2583;50.946;6.954;2022-07-21T16:04:41;21.00;99.90
5130;DHT22;2583;50.946;6.954;2022-07-21T16:07:10;21.10;99.90
5130;DHT22;2583;50.946;6.954;2022-07-21T16:09:38;21.10;99.90
5130;DHT22;2583;50.946;6.954;2022-07-21T16:12:06;21.00;99.90
5130;DHT22;2583;50.946;6.954;2022-07-21T16:14:33;20.90;99.90
5130;DHT22;2583;50.946;6.954;2022-07-21T16:17:00;20.90;99.90
5130;DHT22;2583;50.946;6.954;2022-07-21T16:19:27;20.90;99.90
5130;DHT22;2583;50.946;6.954;2022-07-21T16:21:55;20.90;99.90
5130;DHT22;2583;50.946;6.954;2022-07-21T16:24:23;20.90;99.90
5130;DHT22;2583;50.946;6.954;2022-07-21T16:26:50;20.90;99.90
5130;DHT22;2583;50.946;6.954;2022-07-21T16:29:18;20.90;99.90
5130;DHT22;2583;50.946;6.954;2022-07-21T16:31:45;20.90;99.90
5130;DHT22;2583;50.946;6.954;2022-07-21T16:34:12;20.90;99.90
5130;DHT22;2583;50.946;6.954;2022-07-21T16:36:39;20.80;99.90
5130;DHT22;2583;50.946;6.954;2022-07-21T16:39:06;20.80;99.90
5130;DHT22;2583;50.946;6.954;2022-07-21T16:41:33;20.80;99.90
5130;DHT22;2583;50.946;6.954;2022-07-21T16:44:00;20.80;99.90
5130;DHT22;2583;50.946;6.954;2022-07-21T16:46:26;20.70;99.90
5130;DHT22;2583;50.946;6.954;2022-07-21T16:48:53;20.70;99.90